Terminal Aerodrome Forecast
Issued by NWS Melbourne, FL

Home | Current Version | Previous Version | Text Only | Print | Product List | Glossary On
Versions: 1 2 3 4 5 6 7 8 9 10 11 12 13 14 15 16 17 18 19 20 21 22 23 24 25 26 27
000
FTUS42 KMLB 261501 AAA
TAFMCO
TAF AMD
KMCO 261501Z 2615/2712 20007KT P6SM SCT030 BKN110
     FM261900 16006KT P6SM VCTS BKN035CB
      TEMPO 2620/2623 3SM TSRA BKN030CB
     FM270000 VRB03KT P6SM VCSH SCT040 BKN070=

USA.gov is the U.S. government's official web portal to all federal, state and local government web resources and services.